Time;durP1;ratioP1;P1;durP2;ratioP2;P2;SDS_P1;SDS_P2;PMS_P1;PMS_P2;Temp;Humidity;BMP_temperature;BMP_pressure;BME280_temperature;BME280_humidity;BME280_pressure;Samples;Min_cycle;Max_cycle;Signal;HPM_P1;HPM_P2
2022/05/28 00:01:14;;;;;;;15.55;2.92;;;;;;;;;;5086424;28;20143;-77
2022/05/28 00:03:42;;;;;;;10.05;2.58;;;;;;;;;;5066360;28;20048;-76
2022/05/28 00:06:09;;;;;;;12.45;2.78;;;;;;;;;;5065428;28;20048;-74
2022/05/28 00:08:36;;;;;;;15.40;3.05;;;;;;;;;;5064606;28;20053;-76
2022/05/28 00:11:09;;;;;;;10.07;2.83;;;;;;;;;;5063987;28;20053;-77
2022/05/28 00:13:35;;;;;;;12.43;2.67;;;;;;;;;;5047932;28;20064;-76
2022/05/28 00:16:02;;;;;;;14.90;3.20;;;;;;;;;;5047110;28;20521;-76
2022/05/28 00:18:28;;;;;;;10.32;2.63;;;;;;;;;;5063372;28;20632;-75
2022/05/28 00:20:54;;;;;;;14.27;3.65;;;;;;;;;;5063982;28;20065;-76
2022/05/28 00:23:21;;;;;;;15.80;3.28;;;;;;;;;;5054533;28;20059;-76
2022/05/28 00:25:47;;;;;;;16.65;3.72;;;;;;;;;;5054949;28;20603;-75
2022/05/28 00:28:14;;;;;;;15.68;3.35;;;;;;;;;;5075135;28;20052;-76
2022/05/28 00:30:41;;;;;;;11.77;3.28;;;;;;;;;;5061654;28;20056;-77
2022/05/28 00:33:07;;;;;;;15.90;3.35;;;;;;;;;;5065931;28;20048;-75
2022/05/28 00:35:34;;;;;;;15.07;2.88;;;;;;;;;;5083667;28;20086;-77
2022/05/28 00:38:00;;;;;;;11.38;2.78;;;;;;;;;;5083126;28;21022;-75
2022/05/28 00:40:27;;;;;;;11.82;3.17;;;;;;;;;;5082690;28;20056;-75
2022/05/28 00:42:58;;;;;;;10.95;2.65;;;;;;;;;;5084295;28;20155;-77
2022/05/28 00:45:24;;;;;;;;;;;;;;;;;;5079731;28;20056;-77
2022/05/28 00:47:53;;;;;;;16.52;2.88;;;;;;;;;;5065377;28;44634;-76
2022/05/28 00:50:19;;;;;;;13.10;4.10;;;;;;;;;;5069290;28;20052;-77
2022/05/28 00:52:46;;;;;;;12.80;3.08;;;;;;;;;;5087589;28;20140;-77
2022/05/28 00:55:13;;;;;;;11.57;2.67;;;;;;;;;;5083690;28;20062;-76
2022/05/28 00:57:41;;;;;;;13.10;3.13;;;;;;;;;;5082758;28;20056;-77
2022/05/28 01:00:10;;;;;;;9.90;3.00;;;;;;;;;;5075638;28;20162;-77
2022/05/28 01:02:42;;;;;;;12.52;2.70;;;;;;;;;;5087780;28;20497;-76
2022/05/28 01:05:31;;;;;;;9.95;2.90;;;;;;;;;;5068727;28;20117;-77
2022/05/28 01:08:12;;;;;;;15.07;3.00;;;;;;;;;;5064979;28;20131;-76
2022/05/28 01:10:38;;;;;;;11.80;2.92;;;;;;;;;;5048758;28;20047;-76
2022/05/28 01:13:09;;;;;;;11.43;2.70;;;;;;;;;;5058031;28;20122;-77
2022/05/28 01:15:37;;;;;;;16.85;3.65;;;;;;;;;;5082250;28;20140;-74
2022/05/28 01:18:07;;;;;;;16.13;3.22;;;;;;;;;;5067710;28;20056;-76
2022/05/28 01:20:40;;;;;;;10.85;2.45;;;;;;;;;;5068501;28;20162;-75
2022/05/28 01:23:15;;;;;;;16.20;2.70;;;;;;;;;;5056850;28;20080;-76
2022/05/28 01:25:53;;;;;;;18.35;3.10;;;;;;;;;;5060742;28;20063;-74
2022/05/28 01:28:22;;;;;;;12.27;2.50;;;;;;;;;;5082608;28;20867;-76
2022/05/28 01:30:49;;;;;;;11.00;2.45;;;;;;;;;;5086433;28;20053;-76
2022/05/28 01:33:15;;;;;;;14.05;3.15;;;;;;;;;;5095100;28;20057;-76
2022/05/28 01:35:43;;;;;;;11.68;2.80;;;;;;;;;;5059376;28;20925;-76
2022/05/28 01:38:11;;;;;;;10.45;2.25;;;;;;;;;;5047919;28;20137;-76
2022/05/28 01:40:39;;;;;;;13.93;2.58;;;;;;;;;;5064744;28;20552;-76
2022/05/28 01:43:07;;;;;;;15.35;2.90;;;;;;;;;;5080034;28;20135;-76
2022/05/28 01:45:34;;;;;;;11.45;2.58;;;;;;;;;;5068595;28;20162;-76
2022/05/28 01:48:03;;;;;;;8.55;2.45;;;;;;;;;;5084900;28;20135;-76
2022/05/28 01:50:31;;;;;;;11.15;2.60;;;;;;;;;;5084788;28;20051;-76
2022/05/28 01:52:59;;;;;;;13.30;3.08;;;;;;;;;;5066305;28;20056;-76
2022/05/28 01:55:26;;;;;;;16.10;2.55;;;;;;;;;;5068458;28;20057;-76
2022/05/28 01:57:53;;;;;;;14.70;2.67;;;;;;;;;;5050058;28;20140;-76
2022/05/28 02:00:19;;;;;;;12.85;2.83;;;;;;;;;;5061461;28;20058;-76
2022/05/28 02:02:46;;;;;;;12.23;2.65;;;;;;;;;;5083382;28;20155;-76
2022/05/28 02:05:13;;;;;;;12.98;2.50;;;;;;;;;;5081840;28;20057;-76
2022/05/28 02:07:39;;;;;;;12.35;2.42;;;;;;;;;;5082344;28;20055;-76
2022/05/28 02:10:08;;;;;;;10.75;2.38;;;;;;;;;;5077530;28;20136;-76
2022/05/28 02:12:37;;;;;;;11.80;2.30;;;;;;;;;;5084144;28;20132;-76
2022/05/28 02:15:04;;;;;;;12.00;2.45;;;;;;;;;;5080320;28;20143;-76
2022/05/28 02:17:49;;;;;;;9.85;2.38;;;;;;;;;;5067563;28;20052;-76
2022/05/28 02:20:28;;;;;;;12.63;2.33;;;;;;;;;;5064824;28;20418;-76
2022/05/28 02:23:23;;;;;;;14.98;2.92;;;;;;;;;;5068917;28;20049;-76
2022/05/28 02:26:09;;;;;;;9.52;2.25;;;;;;;;;;5067381;28;20143;-76
2022/05/28 02:28:36;;;;;;;16.05;2.20;;;;;;;;;;5074044;28;20083;-76
2022/05/28 02:31:11;;;;;;;11.63;2.55;;;;;;;;;;5067724;28;20539;-76
2022/05/28 02:33:37;;;;;;;10.85;2.67;;;;;;;;;;5055680;28;20936;-76
2022/05/28 02:36:04;;;;;;;13.07;2.42;;;;;;;;;;5085782;28;20064;-76
2022/05/28 02:38:30;;;;;;;9.88;2.83;;;;;;;;;;5085253;28;20045;-76
2022/05/28 02:40:56;;;;;;;13.15;2.80;;;;;;;;;;5079473;28;20049;-76
2022/05/28 02:43:23;;;;;;;9.88;2.45;;;;;;;;;;5079069;28;20498;-76
2022/05/28 02:45:50;;;;;;;12.60;2.42;;;;;;;;;;5061459;28;20053;-76
2022/05/28 02:48:16;;;;;;;9.55;2.40;;;;;;;;;;5077179;28;20558;-76
2022/05/28 02:50:43;;;;;;;12.27;2.38;;;;;;;;;;5082973;28;20062;-76
2022/05/28 02:53:11;;;;;;;11.05;2.40;;;;;;;;;;5081631;28;20087;-76
2022/05/28 02:55:38;;;;;;;10.85;2.45;;;;;;;;;;5066357;28;20084;-76
2022/05/28 02:58:11;;;;;;;16.65;3.08;;;;;;;;;;5057494;28;20057;-76
2022/05/28 03:00:37;;;;;;;9.60;2.53;;;;;;;;;;5046816;28;20096;-76
2022/05/28 03:03:03;;;;;;;15.32;2.58;;;;;;;;;;5084322;28;20059;-76
2022/05/28 03:05:30;;;;;;;12.35;2.53;;;;;;;;;;5065161;28;20513;-76
2022/05/28 03:07:56;;;;;;;12.30;2.30;;;;;;;;;;5062076;28;20049;-76
2022/05/28 03:10:22;;;;;;;10.68;2.20;;;;;;;;;;5066386;28;20052;-76
2022/05/28 03:12:49;;;;;;;16.35;2.40;;;;;;;;;;5078349;28;20088;-76
2022/05/28 03:15:15;;;;;;;13.32;2.13;;;;;;;;;;5066609;28;20450;-76
2022/05/28 03:17:41;;;;;;;12.48;2.05;;;;;;;;;;5065356;28;20052;-76
2022/05/28 03:20:08;;;;;;;19.00;3.03;;;;;;;;;;5083988;28;20322;-75
2022/05/28 03:22:34;;;;;;;7.07;2.08;;;;;;;;;;5062264;28;20057;-77
2022/05/28 03:25:01;;;;;;;11.50;2.15;;;;;;;;;;5065477;28;20117;-77
2022/05/28 03:27:27;;;;;;;12.73;1.92;;;;;;;;;;5075145;28;20070;-77
2022/05/28 03:29:53;;;;;;;10.90;1.92;;;;;;;;;;5081375;28;20551;-77
2022/05/28 03:32:20;;;;;;;10.02;1.98;;;;;;;;;;5062371;28;20063;-77
2022/05/28 03:34:46;;;;;;;10.45;1.75;;;;;;;;;;5085294;28;20139;-76
2022/05/28 03:37:13;;;;;;;9.13;1.73;;;;;;;;;;5083577;28;20048;-76
2022/05/28 03:39:39;;;;;;;12.77;2.03;;;;;;;;;;5082785;28;20136;-77
2022/05/28 03:42:05;;;;;;;8.15;1.90;;;;;;;;;;5083240;28;20584;-77
2022/05/28 03:44:32;;;;;;;8.65;2.53;;;;;;;;;;5084202;28;20134;-77
2022/05/28 03:47:00;;;;;;;11.20;2.50;;;;;;;;;;5071156;28;20059;-77
2022/05/28 03:49:28;;;;;;;12.95;1.85;;;;;;;;;;5082199;28;20291;-77
2022/05/28 03:51:55;;;;;;;11.52;2.17;;;;;;;;;;5082753;28;20064;-77
2022/05/28 03:54:24;;;;;;;12.85;2.42;;;;;;;;;;5065586;28;20139;-76
2022/05/28 03:56:53;;;;;;;8.57;1.75;;;;;;;;;;5083372;28;20124;-76
2022/05/28 03:59:19;;;;;;;9.85;1.67;;;;;;;;;;5068364;28;20591;-76
2022/05/28 04:01:45;;;;;;;10.13;1.88;;;;;;;;;;5069578;28;20067;-76
2022/05/28 04:04:12;;;;;;;14.20;2.13;;;;;;;;;;5081144;28;20059;-76
2022/05/28 04:06:38;;;;;;;10.55;1.92;;;;;;;;;;5082991;28;20533;-76
2022/05/28 04:09:05;;;;;;;10.77;1.88;;;;;;;;;;5081951;28;20179;-75
2022/05/28 04:11:32;;;;;;;12.77;2.03;;;;;;;;;;5061926;28;20136;-76
2022/05/28 04:13:58;;;;;;;8.73;1.40;;;;;;;;;;5083472;28;20406;-75
2022/05/28 04:16:24;;;;;;;13.40;1.83;;;;;;;;;;5065265;28;20059;-75
2022/05/28 04:18:51;;;;;;;8.27;1.65;;;;;;;;;;5053033;28;20076;-76
2022/05/28 04:21:17;;;;;;;8.90;1.55;;;;;;;;;;5064563;28;20539;-76
2022/05/28 04:23:44;;;;;;;11.30;1.48;;;;;;;;;;5064196;28;20055;-76
2022/05/28 04:26:11;;;;;;;11.18;1.70;;;;;;;;;;5080214;28;20143;-76
2022/05/28 04:28:38;;;;;;;11.43;1.55;;;;;;;;;;5082549;28;22275;-76
2022/05/28 04:31:04;;;;;;;9.38;1.73;;;;;;;;;;5062842;28;20056;-76
2022/05/28 04:33:30;;;;;;;8.90;1.27;;;;;;;;;;5063190;28;20083;-76
2022/05/28 04:35:57;;;;;;;10.48;1.45;;;;;;;;;;5046885;28;20063;-76
2022/05/28 04:38:23;;;;;;;7.03;1.13;;;;;;;;;;5082333;28;20076;-76
2022/05/28 04:40:50;;;;;;;13.52;1.83;;;;;;;;;;5046218;28;20148;-76
2022/05/28 04:43:18;;;;;;;6.65;1.30;;;;;;;;;;5055860;28;20167;-76
2022/05/28 04:45:45;;;;;;;7.22;1.25;;;;;;;;;;5081553;28;20420;-76
2022/05/28 04:48:12;;;;;;;6.13;1.30;;;;;;;;;;5083416;28;20052;-76
2022/05/28 04:50:38;;;;;;;6.65;1.13;;;;;;;;;;5082491;28;20055;-76
2022/05/28 04:53:05;;;;;;;8.18;1.50;;;;;;;;;;5082468;28;20048;-76
2022/05/28 04:55:31;;;;;;;5.82;1.30;;;;;;;;;;5058257;28;20709;-76
2022/05/28 04:57:58;;;;;;;10.93;1.67;;;;;;;;;;5076672;28;20175;-76
2022/05/28 05:00:25;;;;;;;6.32;1.05;;;;;;;;;;5082365;28;20127;-76
2022/05/28 05:02:51;;;;;;;7.93;1.13;;;;;;;;;;5077909;28;20052;-76
2022/05/28 05:05:18;;;;;;;6.60;1.30;;;;;;;;;;5064173;28;20052;-76
2022/05/28 05:07:44;;;;;;;4.97;1.02;;;;;;;;;;5082421;28;20159;-76
2022/05/28 05:10:11;;;;;;;5.68;1.20;;;;;;;;;;5081276;28;20137;-76
2022/05/28 05:12:37;;;;;;;7.05;1.23;;;;;;;;;;5073799;28;20079;-76
2022/05/28 05:15:09;;;;;;;5.60;1.10;;;;;;;;;;5064423;28;20059;-75
2022/05/28 05:17:36;;;;;;;7.88;1.40;;;;;;;;;;5053352;28;20052;-76
2022/05/28 05:20:02;;;;;;;6.88;1.75;;;;;;;;;;5081533;28;20059;-76
2022/05/28 05:22:28;;;;;;;7.20;1.20;;;;;;;;;;5060810;28;20053;-76
2022/05/28 05:24:55;;;;;;;9.43;1.20;;;;;;;;;;5063020;28;20080;-77
2022/05/28 05:27:21;;;;;;;9.23;1.15;;;;;;;;;;5076240;28;20052;-77
2022/05/28 05:29:47;;;;;;;9.38;1.30;;;;;;;;;;5081427;28;20134;-77
2022/05/28 05:32:14;;;;;;;5.03;1.20;;;;;;;;;;5079790;28;20081;-76
2022/05/28 05:34:42;;;;;;;9.20;1.55;;;;;;;;;;5065544;28;20517;-76
2022/05/28 05:37:08;;;;;;;7.88;1.27;;;;;;;;;;5086805;28;20081;-77
2022/05/28 05:39:34;;;;;;;7.55;1.17;;;;;;;;;;5068584;28;20154;-77
2022/05/28 05:42:01;;;;;;;7.40;1.02;;;;;;;;;;5066291;28;20550;-76
2022/05/28 05:44:27;;;;;;;5.63;1.15;;;;;;;;;;5055996;28;20060;-76
2022/05/28 05:46:55;;;;;;;6.72;1.02;;;;;;;;;;5075780;28;20060;-77
2022/05/28 05:49:21;;;;;;;10.13;1.23;;;;;;;;;;5085721;28;20527;-77
2022/05/28 05:51:48;;;;;;;8.27;1.20;;;;;;;;;;5087612;28;20140;-76
2022/05/28 05:54:15;;;;;;;6.25;1.27;;;;;;;;;;5067070;28;20059;-76
2022/05/28 05:56:41;;;;;;;8.52;1.20;;;;;;;;;;5067738;28;20048;-77
2022/05/28 05:59:07;;;;;;;12.10;1.38;;;;;;;;;;5062687;28;20061;-76
2022/05/28 06:01:34;;;;;;;8.27;1.30;;;;;;;;;;5062324;28;20053;-76
2022/05/28 06:04:01;;;;;;;11.75;1.50;;;;;;;;;;5085246;28;20582;-77
2022/05/28 06:06:27;;;;;;;5.82;1.05;;;;;;;;;;5068239;28;20522;-76
2022/05/28 06:08:53;;;;;;;4.28;1.00;;;;;;;;;;5068859;28;20103;-77
2022/05/28 06:11:20;;;;;;;8.15;1.13;;;;;;;;;;5085145;28;20079;-77
2022/05/28 06:13:46;;;;;;;9.32;1.27;;;;;;;;;;5069946;28;21163;-77
2022/05/28 06:16:12;;;;;;;7.82;1.17;;;;;;;;;;5050656;28;20089;-76
2022/05/28 06:18:40;;;;;;;6.78;1.35;;;;;;;;;;5052612;28;20048;-76
2022/05/28 06:21:07;;;;;;;11.80;1.13;;;;;;;;;;5066799;28;20049;-76
2022/05/28 06:23:33;;;;;;;4.70;0.77;;;;;;;;;;5077669;28;20055;-77
2022/05/28 06:26:03;;;;;;;7.68;1.13;;;;;;;;;;5061473;28;20107;-76
2022/05/28 06:28:33;;;;;;;9.77;1.20;;;;;;;;;;5048400;28;20529;-77
2022/05/28 06:31:03;;;;;;;8.02;0.90;;;;;;;;;;5055064;28;20548;-77
2022/05/28 06:33:30;;;;;;;8.38;1.15;;;;;;;;;;5082380;28;20067;-77
2022/05/28 06:35:57;;;;;;;8.45;1.10;;;;;;;;;;5087629;28;20171;-77
2022/05/28 06:38:23;;;;;;;6.85;1.45;;;;;;;;;;5066893;28;20061;-77
2022/05/28 06:40:50;;;;;;;6.85;1.25;;;;;;;;;;5062357;28;20049;-78
2022/05/28 06:43:17;;;;;;;8.52;1.25;;;;;;;;;;5068593;28;20060;-77
2022/05/28 06:45:45;;;;;;;5.97;1.38;;;;;;;;;;5059129;28;20075;-77
2022/05/28 06:48:11;;;;;;;6.50;1.15;;;;;;;;;;5084081;28;20059;-77
2022/05/28 06:53:23;;;;;;;5.60;1.10;;;;;;;;;;5082521;28;20643;-78
2022/05/28 06:55:49;;;;;;;7.90;1.40;;;;;;;;;;5069319;28;20049;-77
2022/05/28 06:58:16;;;;;;;7.03;1.10;;;;;;;;;;5090273;28;20501;-78
2022/05/28 07:00:43;;;;;;;5.93;0.98;;;;;;;;;;5073924;28;20139;-78
2022/05/28 07:03:19;;;;;;;7.53;1.30;;;;;;;;;;5083658;28;20929;-78
2022/05/28 07:05:49;;;;;;;14.07;1.75;;;;;;;;;;5053089;28;20045;-78
2022/05/28 07:08:15;;;;;;;6.55;1.15;;;;;;;;;;5066984;28;20135;-79
2022/05/28 07:10:43;;;;;;;5.70;0.93;;;;;;;;;;5060421;28;20749;-78
2022/05/28 07:13:10;;;;;;;4.70;1.00;;;;;;;;;;5055234;28;20061;-78
2022/05/28 07:15:39;;;;;;;6.72;1.15;;;;;;;;;;5087240;28;20049;-77
2022/05/28 07:18:06;;;;;;;5.50;1.00;;;;;;;;;;5086507;28;20683;-78
2022/05/28 07:20:33;;;;;;;8.50;1.23;;;;;;;;;;5071672;28;20071;-78
2022/05/28 07:23:05;;;;;;;11.07;1.40;;;;;;;;;;5069029;28;20131;-78
2022/05/28 07:25:32;;;;;;;7.55;1.45;;;;;;;;;;5067033;28;20053;-78
2022/05/28 07:28:00;;;;;;;6.72;1.35;;;;;;;;;;5070360;28;20063;-78
2022/05/28 07:30:27;;;;;;;7.50;1.30;;;;;;;;;;5089310;28;20137;-79
2022/05/28 07:32:53;;;;;;;8.88;1.42;;;;;;;;;;5073337;28;20107;-78
2022/05/28 07:35:19;;;;;;;8.15;1.15;;;;;;;;;;5069887;28;20432;-78
2022/05/28 07:37:52;;;;;;;8.23;1.40;;;;;;;;;;5089249;28;20118;-78
2022/05/28 07:40:18;;;;;;;9.50;1.45;;;;;;;;;;5071760;28;20060;-77
2022/05/28 07:42:45;;;;;;;6.82;1.40;;;;;;;;;;5074658;28;20052;-78
2022/05/28 07:45:17;;;;;;;5.90;1.15;;;;;;;;;;5070949;28;20060;-78
2022/05/28 07:47:43;;;;;;;8.02;1.60;;;;;;;;;;5071192;28;20239;-78
2022/05/28 07:50:10;;;;;;;8.70;1.42;;;;;;;;;;5088274;28;20058;-77
2022/05/28 07:52:36;;;;;;;6.70;1.65;;;;;;;;;;5078359;28;20152;-78
2022/05/28 07:55:02;;;;;;;6.22;1.20;;;;;;;;;;5052541;28;20087;-78
2022/05/28 07:57:29;;;;;;;7.90;1.48;;;;;;;;;;5052568;28;20056;-77
2022/05/28 07:59:55;;;;;;;6.47;1.15;;;;;;;;;;5069241;28;20052;-77
2022/05/28 08:02:21;;;;;;;7.15;1.33;;;;;;;;;;5077546;28;20581;-77
2022/05/28 08:04:48;;;;;;;9.40;1.17;;;;;;;;;;5071966;28;20064;-78
2022/05/28 08:07:14;;;;;;;6.43;1.20;;;;;;;;;;5085761;28;20517;-77
2022/05/28 08:09:41;;;;;;;5.32;1.15;;;;;;;;;;5075981;28;20114;-77
2022/05/28 08:12:07;;;;;;;7.53;1.40;;;;;;;;;;5084188;28;20517;-77
2022/05/28 08:14:33;;;;;;;6.72;1.25;;;;;;;;;;5048238;28;20053;-77
2022/05/28 08:17:00;;;;;;;6.03;1.08;;;;;;;;;;5061679;28;20084;-77
2022/05/28 08:19:27;;;;;;;5.95;1.27;;;;;;;;;;5077142;28;20059;-77
2022/05/28 08:24:38;;;;;;;4.75;1.10;;;;;;;;;;5075523;28;20144;-77
2022/05/28 08:27:05;;;;;;;8.68;1.58;;;;;;;;;;5081753;28;20079;-77
2022/05/28 08:29:32;;;;;;;7.95;1.30;;;;;;;;;;5063404;28;20144;-77
2022/05/28 08:31:58;;;;;;;8.07;1.40;;;;;;;;;;5058537;28;20056;-77
2022/05/28 08:34:24;;;;;;;5.05;1.08;;;;;;;;;;5063711;28;20118;-77
2022/05/28 08:36:51;;;;;;;7.43;1.20;;;;;;;;;;5062760;28;20130;-78
2022/05/28 08:39:17;;;;;;;7.57;1.33;;;;;;;;;;5077948;28;20088;-77
2022/05/28 08:41:57;;;;;;;6.28;1.23;;;;;;;;;;5078692;28;20053;-78
2022/05/28 08:44:27;;;;;;;6.85;1.25;;;;;;;;;;5079287;28;20106;-76
2022/05/28 08:46:56;;;;;;;9.02;1.73;;;;;;;;;;5061247;28;20057;-77
2022/05/28 08:49:24;;;;;;;12.77;2.10;;;;;;;;;;5056819;28;20056;-77
2022/05/28 08:51:52;;;;;;;6.80;1.55;;;;;;;;;;5077276;28;20174;-77
2022/05/28 08:54:36;;;;;;;9.32;1.58;;;;;;;;;;5082740;28;20267;-77
2022/05/28 08:57:14;;;;;;;8.07;1.33;;;;;;;;;;5064713;28;20094;-77
2022/05/28 08:59:44;;;;;;;9.02;1.73;;;;;;;;;;5060652;28;20064;-80
2022/05/28 09:02:16;;;;;;;9.25;1.50;;;;;;;;;;5058358;28;20048;-78
2022/05/28 09:04:43;;;;;;;7.55;1.40;;;;;;;;;;5080339;28;20060;-77
2022/05/28 09:07:12;;;;;;;13.82;1.90;;;;;;;;;;5082744;28;20051;-77
2022/05/28 09:09:44;;;;;;;8.43;1.63;;;;;;;;;;5069831;28;20076;-78
2022/05/28 09:12:25;;;;;;;7.68;1.30;;;;;;;;;;5065440;28;20049;-78
2022/05/28 09:14:51;;;;;;;7.82;1.58;;;;;;;;;;5054976;28;20080;-78
2022/05/28 09:17:26;;;;;;;13.43;1.50;;;;;;;;;;5076944;28;20052;-78
2022/05/28 09:19:53;;;;;;;14.48;2.20;;;;;;;;;;5081094;28;20555;-78
2022/05/28 09:22:20;;;;;;;8.80;1.60;;;;;;;;;;5078657;28;20099;-78
2022/05/28 09:24:46;;;;;;;8.32;1.45;;;;;;;;;;5050079;28;20057;-78
2022/05/28 09:27:13;;;;;;;8.52;1.73;;;;;;;;;;5054746;28;20056;-78
2022/05/28 09:30:00;;;;;;;9.30;1.30;;;;;;;;;;5082779;28;20057;-77
2022/05/28 09:32:29;;;;;;;10.45;1.50;;;;;;;;;;5059005;28;20147;-78
2022/05/28 09:35:11;;;;;;;8.93;1.70;;;;;;;;;;5062392;28;20053;-78
2022/05/28 09:37:53;;;;;;;6.78;1.63;;;;;;;;;;5085016;28;20666;-78
2022/05/28 09:40:23;;;;;;;7.57;1.20;;;;;;;;;;5072909;28;20138;-78
2022/05/28 09:43:08;;;;;;;6.97;1.13;;;;;;;;;;5075704;28;20052;-78
2022/05/28 09:45:54;;;;;;;8.23;1.58;;;;;;;;;;5061610;28;20110;-79
2022/05/28 09:48:21;;;;;;;6.88;1.15;;;;;;;;;;5068275;28;20084;-78
2022/05/28 09:50:48;;;;;;;10.07;1.67;;;;;;;;;;5079005;28;20594;-79
2022/05/28 09:56:13;;;;;;;7.13;1.33;;;;;;;;;;5085387;28;20143;-79
2022/05/28 09:58:40;;;;;;;7.65;1.65;;;;;;;;;;5083424;28;20060;-79
2022/05/28 10:01:09;;;;;;;5.45;1.33;;;;;;;;;;5083747;28;20062;-78
2022/05/28 10:06:23;;;;;;;11.57;1.83;;;;;;;;;;5076436;28;20060;-79
2022/05/28 10:08:50;;;;;;;8.55;1.67;;;;;;;;;;5044096;28;20063;-79
2022/05/28 10:11:19;;;;;;;6.80;1.45;;;;;;;;;;5059071;28;20338;-79
2022/05/28 10:13:50;;;;;;;9.98;1.60;;;;;;;;;;5067417;28;20136;-78
2022/05/28 10:16:17;;;;;;;7.63;1.33;;;;;;;;;;5064609;28;20076;-79
2022/05/28 10:19:14;;;;;;;7.60;1.58;;;;;;;;;;5063131;28;20053;-78
2022/05/28 10:21:40;;;;;;;6.82;1.60;;;;;;;;;;5066200;28;20137;-78
2022/05/28 10:24:14;;;;;;;9.07;1.50;;;;;;;;;;5066706;28;20513;-78
2022/05/28 10:26:45;;;;;;;11.48;2.00;;;;;;;;;;5073526;28;20123;-79
2022/05/28 10:29:17;;;;;;;9.85;1.65;;;;;;;;;;5045505;28;20060;-78
2022/05/28 10:31:45;;;;;;;10.13;1.70;;;;;;;;;;5068567;28;20107;-79
2022/05/28 10:34:32;;;;;;;7.20;1.60;;;;;;;;;;5057756;28;20067;-78
2022/05/28 10:37:09;;;;;;;7.20;1.50;;;;;;;;;;5078948;28;20700;-78
2022/05/28 10:39:37;;;;;;;6.70;1.45;;;;;;;;;;5049229;28;20136;-78
2022/05/28 10:42:06;;;;;;;7.82;1.50;;;;;;;;;;5051261;28;20588;-79
2022/05/28 10:44:33;;;;;;;5.97;1.30;;;;;;;;;;5079270;28;20203;-78
2022/05/28 10:47:02;;;;;;;4.95;1.10;;;;;;;;;;5083435;28;20898;-78
2022/05/28 10:49:35;;;;;;;4.25;0.90;;;;;;;;;;5055739;28;20056;-78
2022/05/28 10:52:20;;;;;;;6.63;1.20;;;;;;;;;;5060642;28;20045;-79
2022/05/28 10:55:04;;;;;;;7.50;1.27;;;;;;;;;;5081711;28;20175;-78
2022/05/28 10:57:30;;;;;;;6.20;1.17;;;;;;;;;;5067976;28;20059;-78
2022/05/28 11:00:05;;;;;;;7.00;1.42;;;;;;;;;;5068319;28;20087;-78
2022/05/28 11:02:55;;;;;;;5.65;1.65;;;;;;;;;;5062654;28;20063;-78
2022/05/28 11:05:22;;;;;;;4.83;1.17;;;;;;;;;;5065256;28;20135;-78
2022/05/28 11:07:57;;;;;;;4.80;1.40;;;;;;;;;;5085455;28;20838;-78
2022/05/28 11:10:49;;;;;;;6.68;1.27;;;;;;;;;;5086760;28;20060;-79
2022/05/28 11:13:22;;;;;;;6.53;1.35;;;;;;;;;;5086812;28;20565;-79
2022/05/28 11:16:16;;;;;;;7.32;1.45;;;;;;;;;;5069314;28;20071;-78
2022/05/28 11:18:51;;;;;;;8.45;1.50;;;;;;;;;;5068150;28;20059;-78
2022/05/28 11:21:31;;;;;;;8.30;1.58;;;;;;;;;;5067751;28;20791;-78
2022/05/28 11:24:17;;;;;;;6.55;1.63;;;;;;;;;;5063014;28;20135;-79
2022/05/28 11:26:55;;;;;;;6.50;1.35;;;;;;;;;;5049517;28;20593;-78
2022/05/28 11:29:40;;;;;;;7.65;1.90;;;;;;;;;;5046701;28;20260;-78
2022/05/28 11:32:27;;;;;;;5.30;1.55;;;;;;;;;;5054852;28;20068;-78
2022/05/28 11:35:14;;;;;;;6.10;1.40;;;;;;;;;;5042457;28;20573;-77
2022/05/28 11:37:46;;;;;;;8.32;1.40;;;;;;;;;;5051812;28;20267;-79
2022/05/28 11:40:29;;;;;;;7.43;1.48;;;;;;;;;;5053485;28;20131;-78
2022/05/28 11:43:03;;;;;;;9.02;1.85;;;;;;;;;;5071429;28;20055;-78
2022/05/28 11:45:40;;;;;;;7.22;1.48;;;;;;;;;;5053693;28;20143;-77
2022/05/28 11:48:13;;;;;;;10.55;1.40;;;;;;;;;;5075866;28;20052;-78
2022/05/28 11:53:33;;;;;;;6.78;1.50;;;;;;;;;;5073928;28;20517;-77
2022/05/28 11:56:03;;;;;;;6.13;1.10;;;;;;;;;;5072854;28;20081;-79
2022/05/28 11:58:37;;;;;;;7.60;1.25;;;;;;;;;;5077910;28;20151;-78
2022/05/28 12:01:09;;;;;;;7.53;1.30;;;;;;;;;;5083206;28;20048;-78
2022/05/28 12:03:37;;;;;;;5.82;1.20;;;;;;;;;;5085141;28;20534;-78
2022/05/28 12:06:03;;;;;;;4.85;1.10;;;;;;;;;;5066614;28;20432;-77
2022/05/28 12:08:48;;;;;;;6.97;1.20;;;;;;;;;;5073423;28;20147;-77
2022/05/28 12:11:21;;;;;;;6.20;1.40;;;;;;;;;;5080426;28;20044;-78
2022/05/28 12:13:49;;;;;;;6.82;1.48;;;;;;;;;;5080959;28;20548;-77
2022/05/28 12:16:21;;;;;;;7.72;1.75;;;;;;;;;;5071139;28;20851;-78
2022/05/28 12:19:00;;;;;;;10.23;1.67;;;;;;;;;;5067457;28;20060;-78
2022/05/28 12:21:27;;;;;;;6.65;1.40;;;;;;;;;;5077612;28;20080;-77
2022/05/28 12:24:10;;;;;;;8.55;1.63;;;;;;;;;;5065296;28;20513;-79
2022/05/28 12:29:33;;;;;;;6.20;1.77;;;;;;;;;;5071124;28;20061;-77
2022/05/28 12:32:29;;;;;;;9.82;1.60;;;;;;;;;;5056263;28;20057;-79
2022/05/28 12:35:20;;;;;;;7.70;1.80;;;;;;;;;;5051188;28;20056;-79
2022/05/28 12:37:57;;;;;;;8.07;1.42;;;;;;;;;;5066164;28;20696;-80
2022/05/28 12:40:34;;;;;;;6.95;1.50;;;;;;;;;;5067167;28;20057;-75
2022/05/28 12:43:13;;;;;;;10.48;1.80;;;;;;;;;;5076358;28;20140;-75
2022/05/28 12:45:40;;;;;;;7.72;1.48;;;;;;;;;;5057487;28;20167;-79
2022/05/28 12:48:15;;;;;;;10.98;2.20;;;;;;;;;;5086434;28;20151;-79
2022/05/28 12:50:45;;;;;;;7.22;1.40;;;;;;;;;;5059330;28;20063;-80
2022/05/28 12:53:18;;;;;;;8.60;1.83;;;;;;;;;;5055655;28;20178;-80
2022/05/28 12:55:45;;;;;;;14.48;2.13;;;;;;;;;;5075210;28;20052;-83
2022/05/28 12:58:20;;;;;;;8.38;1.70;;;;;;;;;;5049050;28;20305;-78
2022/05/28 13:00:58;;;;;;;4.90;1.20;;;;;;;;;;5066040;28;20056;-79
2022/05/28 13:03:26;;;;;;;4.28;1.15;;;;;;;;;;5063421;28;20229;-79
2022/05/28 13:06:00;;;;;;;5.85;1.10;;;;;;;;;;5084404;28;20143;-78
2022/05/28 13:08:28;;;;;;;4.82;1.05;;;;;;;;;;5078066;28;20347;-78
2022/05/28 13:10:56;;;;;;;5.13;0.93;;;;;;;;;;5067899;28;20550;-79
2022/05/28 13:13:41;;;;;;;6.30;1.23;;;;;;;;;;5047223;28;20057;-78
2022/05/28 13:16:25;;;;;;;6.57;1.23;;;;;;;;;;5084667;28;20131;-77
2022/05/28 13:19:02;;;;;;;8.40;1.50;;;;;;;;;;5063944;28;20053;-77
2022/05/28 13:21:43;;;;;;;5.63;1.27;;;;;;;;;;5080568;28;20249;-77
2022/05/28 13:24:38;;;;;;;7.03;1.33;;;;;;;;;;5065501;28;20528;-78
2022/05/28 13:27:07;;;;;;;7.47;1.52;;;;;;;;;;5048294;28;20038;-76
2022/05/28 13:29:42;;;;;;;5.85;1.27;;;;;;;;;;5058760;28;20091;-79
2022/05/28 13:32:12;;;;;;;7.97;1.60;;;;;;;;;;5082427;28;20059;-78
2022/05/28 13:34:39;;;;;;;6.50;1.25;;;;;;;;;;5067880;28;20063;-78
2022/05/28 13:37:14;;;;;;;7.30;1.50;;;;;;;;;;5079994;28;20053;-79
2022/05/28 13:39:45;;;;;;;9.18;1.50;;;;;;;;;;5065729;28;20082;-77
2022/05/28 13:42:12;;;;;;;3.95;1.25;;;;;;;;;;5062070;28;20048;-77
2022/05/28 13:44:42;;;;;;;6.20;1.38;;;;;;;;;;5084659;28;20059;-78
2022/05/28 13:47:09;;;;;;;4.78;1.20;;;;;;;;;;5060427;28;20051;-78
2022/05/28 13:49:37;;;;;;;7.15;1.40;;;;;;;;;;5048384;28;20088;-79
2022/05/28 13:52:07;;;;;;;5.32;1.20;;;;;;;;;;5049993;28;20052;-78
2022/05/28 13:54:34;;;;;;;5.97;1.50;;;;;;;;;;5065037;28;20152;-78
2022/05/28 13:57:01;;;;;;;11.57;1.80;;;;;;;;;;5067388;28;20052;-77
2022/05/28 13:59:32;;;;;;;6.65;1.38;;;;;;;;;;5068180;28;20048;-76
2022/05/28 14:01:59;;;;;;;6.85;1.20;;;;;;;;;;5072501;28;20048;-77
2022/05/28 14:04:29;;;;;;;7.43;1.42;;;;;;;;;;5083742;28;20049;-77
2022/05/28 14:06:59;;;;;;;10.45;1.58;;;;;;;;;;5068805;28;20064;-77
2022/05/28 14:09:29;;;;;;;7.03;1.60;;;;;;;;;;5086708;28;20057;-76
2022/05/28 14:11:56;;;;;;;7.65;1.30;;;;;;;;;;5064559;28;20091;-78
2022/05/28 14:14:23;;;;;;;7.55;1.20;;;;;;;;;;5067391;28;20076;-78
2022/05/28 14:17:01;;;;;;;9.18;1.50;;;;;;;;;;5084677;28;20139;-78
2022/05/28 14:19:30;;;;;;;6.65;1.38;;;;;;;;;;5064866;28;20080;-77
2022/05/28 14:21:58;;;;;;;7.88;1.45;;;;;;;;;;5084244;28;20136;-78
2022/05/28 14:24:35;;;;;;;8.80;1.90;;;;;;;;;;5085781;28;20053;-78
2022/05/28 14:27:05;;;;;;;9.50;1.60;;;;;;;;;;5082958;28;20067;-78
2022/05/28 14:29:35;;;;;;;7.68;1.50;;;;;;;;;;5081326;28;20136;-77
2022/05/28 14:32:04;;;;;;;7.43;1.70;;;;;;;;;;5082207;28;20057;-78
2022/05/28 14:34:36;;;;;;;7.18;1.35;;;;;;;;;;5084020;28;20122;-77
2022/05/28 14:37:03;;;;;;;10.18;1.60;;;;;;;;;;5075155;28;20057;-77
2022/05/28 14:39:31;;;;;;;7.20;1.70;;;;;;;;;;5081405;28;20056;-78
2022/05/28 14:42:03;;;;;;;9.00;2.05;;;;;;;;;;5051328;28;21014;-77
2022/05/28 14:44:29;;;;;;;9.13;1.65;;;;;;;;;;5053358;28;20521;-78
2022/05/28 14:46:56;;;;;;;6.78;1.58;;;;;;;;;;5073715;28;20063;-79
2022/05/28 14:49:28;;;;;;;5.75;1.30;;;;;;;;;;5055991;28;20513;-77
2022/05/28 14:51:59;;;;;;;7.43;1.27;;;;;;;;;;5045165;28;20103;-77
2022/05/28 14:54:30;;;;;;;9.13;1.42;;;;;;;;;;5080442;28;20061;-76
2022/05/28 14:56:59;;;;;;;5.63;0.90;;;;;;;;;;5083579;28;20071;-78
2022/05/28 14:59:37;;;;;;;6.38;1.30;;;;;;;;;;5080355;28;20063;-77
2022/05/28 15:02:16;;;;;;;6.40;1.10;;;;;;;;;;5073354;28;20550;-77
2022/05/28 15:04:43;;;;;;;6.03;1.10;;;;;;;;;;5082807;28;20061;-79
2022/05/28 15:07:19;;;;;;;4.45;1.10;;;;;;;;;;5069320;28;20306;-77
2022/05/28 15:09:46;;;;;;;6.15;1.08;;;;;;;;;;5075881;28;20059;-78
2022/05/28 15:12:12;;;;;;;7.22;1.15;;;;;;;;;;5057550;28;20084;-77